Tequesta, FL (33469)

5:51 PM EDT on August 30, 2014 (GMT -0400)
KFLTEQUE4 | Change Station
CLOSE
Current Station
Personal Weather Station
Location: Tequesta, FL
Elevation: 20 ft
Nearby Weather Stations

Elev 20 ft 26.96 °N, 80.08 °W | Updated 1 second ago

Partly Cloudy
Partly Cloudy
90.3 °F
Feels Like 109 °F
N
2.9
Wind Variable Wind from North
Gusts 4.3 mph

Today
High -- | Low -- °F
--% Chance of Precip.
Yesterday
High -- | Low -- °F
Precip. -- in
6:58 AM 7:42 PM
Waxing Crescent, 25% visible
Pressure 30.05 in
Visibility 10.0 miles
Clouds Scattered Clouds 2300 ft
Mostly Cloudy 20000 ft
Heat Index 109 °F
Dew Point 80 °F
Humidity 73%
Rainfall 0.00 in
Snow Depth Not available.
UV 3 out of 12
Pollen 5.00 out of 12
PM2.5 Moderate
Flu Activity Not available.
METAR KPBI 302053Z 11013KT 10SM SCT023 BKN200 32/24 A3005 RMK AO2 SLP175 T03170244 56017

More Conditions Fewer Conditions

Pressure 30.05 in
Visibility 10.0 miles
Clouds Scattered Clouds 2300 ft
Mostly Cloudy 20000 ft
Heat Index 109 °F
Dew Point 80 °F
Humidity 73%
Rainfall 0.00 in
Snow Depth Not available.
UV 3 out of 12
Pollen 5.00 out of 12
PM2.5 Moderate
Flu Activity Not available.
METAR KPBI 302053Z 11013KT 10SM SCT023 BKN200 32/24 A3005 RMK AO2 SLP175 T03170244 56017

More Conditions Fewer Conditions

10-Day Weather Forecast

Almanac

Astronomy

Aug. 30, 2014 Rise Set
Actual Time 6:58 AM EDT 7:42 PM EDT
Civil Twilight 6:35 AM EDT 8:06 PM EDT
Nautical Twilight 6:07 AM EDT 8:34 PM EDT
Astronomical Twilight 5:38 AM EDT 9:02 PM EDT
Moon 11:15 AM EDT 10:46 PM EDT
Length of Visible Light 13h 31m
Length of Day
12h 43m
Tomorrow will be 1m 31s shorter.
Waxing Crescent, 25% of the Moon is Illuminated
Today
Waxing Crescent
Sep 2
First Quarter
Sep 8
Full
Sep 15
Last Quarter
Sep 24
New

Today's Extremes

State Highs State Lows

Community

WunderPhotos

Upload Photos

1,748,647 photos uploaded!

WunderBlogs® & News

Nearby

Air Quality

  Air Quality AQ Index Pollutant
Yesterday Good
PM2.5
Yesterday Good
OZONE
Current Moderate
PM2.5
Saturday Moderate
PM2.5
Saturday Good
OZONE
Sunday Moderate
PM2.5
Sunday Good
OZONE
Monday Good
OZONE
Monday Good
PM2.5

Snow Depth

Station Depth Elevation
No new snow has been reported.

Earthquake Activity

City Distance Mag. Time & Date
No recent earthquake activity has been reported nearby.
Minimum magnitude displayed is 2.5.

Coastal Water Temperatures

Place Temperature
Lake Worth, FL 88.0 °F
Trident Pier, FL 84.9 °F
Virginia Key, FL 88.0 °F

Nearby Weather Stations